createdAt,value
2019-05-28T00:01:08.253Z,14.97
2019-05-28T00:03:40.969Z,14.96
2019-05-28T00:06:13.896Z,14.95
2019-05-28T00:08:46.793Z,14.92
2019-05-28T00:11:20.184Z,14.89
2019-05-28T00:13:52.864Z,14.82
2019-05-28T00:16:25.656Z,14.77
2019-05-28T00:18:58.364Z,14.75
2019-05-28T00:21:31.316Z,14.70
2019-05-28T00:24:03.880Z,14.64
2019-05-28T00:26:36.777Z,14.57
2019-05-28T00:29:09.557Z,14.53
2019-05-28T00:31:42.345Z,14.57
2019-05-28T00:34:15.119Z,14.60
2019-05-28T00:36:48.128Z,14.59
2019-05-28T00:39:20.693Z,14.57
2019-05-28T00:41:53.583Z,14.58
2019-05-28T00:44:26.353Z,14.57
2019-05-28T00:46:59.024Z,14.50
2019-05-28T00:49:31.712Z,14.48
2019-05-28T00:52:06.237Z,14.47
2019-05-28T00:54:39.169Z,14.43
2019-05-28T00:57:12.791Z,14.41
2019-05-28T00:59:47.974Z,14.38
2019-05-28T01:02:21.973Z,14.36
2019-05-28T01:04:54.775Z,14.28
2019-05-28T01:07:27.434Z,14.14
2019-05-28T01:10:00.221Z,14.02
2019-05-28T01:12:33.798Z,13.90
2019-05-28T01:15:08.746Z,13.80
2019-05-28T01:17:41.783Z,13.79
2019-05-28T01:20:15.128Z,13.87
2019-05-28T01:22:48.531Z,13.96
2019-05-28T01:25:20.985Z,14.04
2019-05-28T01:27:54.708Z,14.10
2019-05-28T01:30:27.591Z,14.14
2019-05-28T01:33:00.268Z,14.15
2019-05-28T01:35:33.173Z,14.16
2019-05-28T01:38:08.299Z,14.18
2019-05-28T01:40:40.067Z,14.21
2019-05-28T01:43:12.724Z,14.21
2019-05-28T01:45:45.407Z,14.25
2019-05-28T01:48:18.397Z,14.26
2019-05-28T01:50:51.184Z,14.25
2019-05-28T01:53:23.575Z,14.21
2019-05-28T01:55:56.949Z,14.08
2019-05-28T01:58:29.731Z,14.01
2019-05-28T02:01:12.691Z,14.01
2019-05-28T02:03:37.034Z,14.06
2019-05-28T02:06:10.143Z,14.08
2019-05-28T02:08:43.134Z,14.13
2019-05-28T02:11:15.784Z,14.19
2019-05-28T02:13:48.598Z,14.22
2019-05-28T02:16:21.238Z,14.17
2019-05-28T02:18:54.081Z,14.16
2019-05-28T02:21:27.012Z,14.20
2019-05-28T02:24:00.304Z,14.19
2019-05-28T02:26:32.784Z,14.11
2019-05-28T02:29:05.557Z,13.94
2019-05-28T02:31:38.567Z,13.86
2019-05-28T02:34:11.135Z,13.84
2019-05-28T02:36:43.705Z,13.91
2019-05-28T02:39:16.446Z,13.99
2019-05-28T02:41:49.349Z,14.07
2019-05-28T02:44:22.048Z,14.18
2019-05-28T02:46:54.830Z,14.22
2019-05-28T02:49:27.507Z,14.22
2019-05-28T02:52:00.183Z,14.17
2019-05-28T02:54:33.161Z,14.11
2019-05-28T02:57:05.837Z,14.10
2019-05-28T02:59:38.988Z,14.12
2019-05-28T03:02:14.795Z,14.13
2019-05-28T03:04:48.369Z,14.14
2019-05-28T03:07:22.077Z,14.14
2019-05-28T03:09:56.523Z,14.17
2019-05-28T03:12:32.392Z,14.20
2019-05-28T03:15:08.449Z,14.31
2019-05-28T03:17:43.267Z,14.47
2019-05-28T03:20:16.365Z,14.64
2019-05-28T03:22:50.451Z,14.79
2019-05-28T03:25:24.186Z,14.91
2019-05-28T03:27:57.527Z,15.00
2019-05-28T03:30:30.176Z,15.02
2019-05-28T03:33:03.012Z,15.08
2019-05-28T03:35:38.446Z,15.17
2019-05-28T03:38:13.012Z,15.28
2019-05-28T03:40:47.914Z,15.41
2019-05-28T03:43:20.402Z,15.46
2019-05-28T03:45:53.500Z,15.54
2019-05-28T03:48:26.664Z,15.65
2019-05-28T03:50:59.773Z,15.79
2019-05-28T03:53:32.458Z,15.89
2019-05-28T03:56:05.031Z,15.97
2019-05-28T03:58:37.618Z,16.03
2019-05-28T04:01:10.845Z,16.10
2019-05-28T04:03:43.489Z,16.17
2019-05-28T04:06:16.550Z,16.24
2019-05-28T04:08:49.149Z,16.33
2019-05-28T04:11:22.175Z,16.40
2019-05-28T04:13:55.634Z,16.48
2019-05-28T04:16:28.298Z,16.57
2019-05-28T04:19:00.773Z,16.66
2019-05-28T04:21:33.671Z,16.76
2019-05-28T04:24:06.466Z,16.85
2019-05-28T04:26:39.237Z,16.95
2019-05-28T04:29:12.153Z,17.07
2019-05-28T04:31:45.024Z,17.19
2019-05-28T04:34:17.892Z,17.28
2019-05-28T04:36:50.469Z,17.39
2019-05-28T04:39:23.952Z,17.49
2019-05-28T04:41:56.525Z,17.64
2019-05-28T04:44:29.527Z,17.77
2019-05-28T04:47:02.125Z,17.88
2019-05-28T04:49:34.891Z,18.02
2019-05-28T04:52:07.980Z,18.16
2019-05-28T04:54:40.876Z,18.27
2019-05-28T04:57:13.339Z,18.40
2019-05-28T04:59:46.128Z,18.52
2019-05-28T05:02:19.360Z,18.63
2019-05-28T05:04:52.099Z,18.75
2019-05-28T05:07:25.270Z,18.86
2019-05-28T05:09:57.985Z,18.98
2019-05-28T05:12:30.845Z,19.06
2019-05-28T05:15:05.755Z,19.19
2019-05-28T05:17:38.346Z,19.33
2019-05-28T05:20:11.019Z,19.44
2019-05-28T05:22:43.917Z,19.59
2019-05-28T05:25:17.774Z,19.69
2019-05-28T05:27:50.188Z,19.82
2019-05-28T05:30:22.769Z,19.91
2019-05-28T05:32:55.648Z,20.03
2019-05-28T05:35:28.144Z,20.14
2019-05-28T05:38:00.697Z,20.27
2019-05-28T05:40:34.111Z,20.40
2019-05-28T05:43:06.784Z,20.50
2019-05-28T05:45:39.355Z,20.62
2019-05-28T05:48:12.154Z,20.75
2019-05-28T05:50:45.443Z,20.90
2019-05-28T05:53:18.943Z,21.04
2019-05-28T05:55:51.735Z,21.20
2019-05-28T05:58:25.408Z,21.36
2019-05-28T06:00:58.210Z,21.52
2019-05-28T06:03:40.238Z,21.65
2019-05-28T06:06:05.330Z,21.80
2019-05-28T06:08:38.221Z,21.93
2019-05-28T06:11:10.998Z,22.06
2019-05-28T06:13:43.437Z,22.22
2019-05-28T06:16:17.047Z,22.33
2019-05-28T06:18:49.750Z,22.51
2019-05-28T06:21:22.618Z,22.62
2019-05-28T06:23:55.288Z,22.72
2019-05-28T06:26:27.875Z,22.84
2019-05-28T06:29:00.748Z,22.97
2019-05-28T06:31:33.442Z,23.09
2019-05-28T06:34:06.323Z,23.22
2019-05-28T06:36:38.801Z,23.36
2019-05-28T06:39:11.580Z,23.45
2019-05-28T06:41:43.954Z,23.53
2019-05-28T06:44:16.729Z,23.66
2019-05-28T06:46:49.415Z,23.77
2019-05-28T06:49:23.403Z,23.86
2019-05-28T06:51:56.205Z,23.97
2019-05-28T06:54:29.091Z,24.06
2019-05-28T06:57:01.837Z,24.14
2019-05-28T06:59:34.549Z,24.24
2019-05-28T07:02:07.226Z,24.30
2019-05-28T07:04:39.586Z,24.37
2019-05-28T07:07:12.490Z,24.45
2019-05-28T07:09:45.157Z,24.56
2019-05-28T07:12:18.354Z,24.67
2019-05-28T07:14:50.990Z,24.80
2019-05-28T07:17:23.703Z,24.86
2019-05-28T07:19:56.198Z,24.97
2019-05-28T07:22:28.759Z,25.07
2019-05-28T07:25:01.351Z,25.23
2019-05-28T07:27:34.132Z,25.33
2019-05-28T07:30:09.868Z,25.37
2019-05-28T07:32:42.456Z,25.43
2019-05-28T07:35:16.160Z,25.49
2019-05-28T07:37:48.534Z,25.52
2019-05-28T07:40:31.227Z,25.75
2019-05-28T07:42:56.666Z,25.75
2019-05-28T07:45:29.210Z,25.79
2019-05-28T07:48:01.918Z,25.77
2019-05-28T07:50:34.698Z,25.87
2019-05-28T07:53:07.407Z,25.92
2019-05-28T07:55:40.373Z,25.96
2019-05-28T07:58:13.145Z,26.05
2019-05-28T08:00:45.984Z,26.10
2019-05-28T08:03:18.389Z,26.13
2019-05-28T08:05:51.900Z,26.13
2019-05-28T08:08:25.486Z,26.19
2019-05-28T08:10:57.872Z,26.23
2019-05-28T08:13:40.175Z,26.26
2019-05-28T08:16:17.491Z,26.30
2019-05-28T08:18:38.983Z,26.37
2019-05-28T08:21:11.588Z,26.44
2019-05-28T08:23:44.237Z,26.46
2019-05-28T08:26:16.933Z,26.38
2019-05-28T08:28:49.698Z,26.41
2019-05-28T08:31:22.275Z,26.49
2019-05-28T08:33:54.749Z,26.59
2019-05-28T08:36:27.534Z,26.73
2019-05-28T08:39:01.032Z,26.85
2019-05-28T08:41:34.330Z,26.93
2019-05-28T08:44:06.804Z,27.01
2019-05-28T08:46:39.792Z,27.10
2019-05-28T08:49:12.360Z,27.19
2019-05-28T08:51:45.025Z,27.34
2019-05-28T08:54:17.920Z,27.55
2019-05-28T08:56:50.609Z,27.67
2019-05-28T09:01:54.641Z,27.82
2019-05-28T09:04:27.196Z,27.91
2019-05-28T09:06:59.794Z,27.96
2019-05-28T09:09:32.574Z,28.02
2019-05-28T09:12:05.454Z,28.28
2019-05-28T09:14:54.980Z,28.28
2019-05-28T09:17:12.133Z,28.42
2019-05-28T09:19:44.760Z,28.31
2019-05-28T09:22:25.642Z,28.20
2019-05-28T09:24:51.501Z,28.10
2019-05-28T09:27:24.303Z,28.07
2019-05-28T09:29:56.878Z,27.97
2019-05-28T09:32:29.770Z,27.88
2019-05-28T09:35:03.039Z,27.92
2019-05-28T09:37:35.639Z,28.00
2019-05-28T09:40:09.450Z,28.00
2019-05-28T09:42:41.923Z,28.06
2019-05-28T09:45:22.509Z,28.17
2019-05-28T09:47:49.168Z,28.36
2019-05-28T09:50:30.440Z,28.53
2019-05-28T09:52:56.102Z,28.67
2019-05-28T09:55:28.799Z,28.87
2019-05-28T09:58:01.469Z,29.11
2019-05-28T10:00:37.827Z,29.26
2019-05-28T10:03:10.520Z,29.34
2019-05-28T10:05:58.270Z,29.47
2019-05-28T10:08:17.399Z,29.57
2019-05-28T10:10:50.331Z,29.69
2019-05-28T10:13:37.263Z,29.83
2019-05-28T10:15:57.000Z,29.94
2019-05-28T10:18:29.550Z,29.79
2019-05-28T10:21:17.131Z,29.68
2019-05-28T10:23:36.361Z,29.60
2019-05-28T10:26:08.731Z,29.59
2019-05-28T10:28:41.422Z,29.58
2019-05-28T10:31:14.096Z,29.62
2019-05-28T10:33:46.650Z,29.73
2019-05-28T10:36:34.308Z,29.90
2019-05-28T10:38:53.668Z,30.07
2019-05-28T10:41:26.242Z,30.04
2019-05-28T10:43:58.938Z,29.99
2019-05-28T10:46:31.789Z,30.06
2019-05-28T10:49:05.001Z,30.13
2019-05-28T10:51:37.452Z,30.21
2019-05-28T10:54:10.048Z,30.31
2019-05-28T10:56:42.609Z,30.47
2019-05-28T10:59:15.409Z,30.50
2019-05-28T11:01:48.085Z,30.62
2019-05-28T11:04:20.774Z,30.64
2019-05-28T11:06:53.572Z,30.56
2019-05-28T11:09:26.374Z,30.42
2019-05-28T11:11:58.913Z,30.38
2019-05-28T11:14:31.369Z,30.48
2019-05-28T11:17:04.066Z,30.64
2019-05-28T11:19:36.437Z,30.84
2019-05-28T11:22:09.018Z,30.88
2019-05-28T11:24:41.903Z,30.88
2019-05-28T11:27:14.576Z,30.88
2019-05-28T11:29:47.464Z,30.85
2019-05-28T11:32:20.227Z,30.74
2019-05-28T11:34:52.818Z,30.67
2019-05-28T11:37:25.708Z,30.79
2019-05-28T11:39:58.193Z,30.90
2019-05-28T11:42:31.278Z,30.91
2019-05-28T11:45:05.490Z,30.96
2019-05-28T11:47:38.146Z,31.05
2019-05-28T11:50:12.159Z,31.07
2019-05-28T11:52:44.679Z,31.11
2019-05-28T11:55:19.071Z,31.06
2019-05-28T11:57:51.961Z,31.00
2019-05-28T12:00:25.834Z,30.89
2019-05-28T12:02:58.442Z,30.83
2019-05-28T12:05:30.913Z,30.68
2019-05-28T12:08:04.871Z,30.45
2019-05-28T12:10:37.817Z,30.37
2019-05-28T12:13:12.132Z,30.44
2019-05-28T12:15:44.908Z,30.51
2019-05-28T12:18:17.501Z,30.67
2019-05-28T12:20:50.279Z,30.88
2019-05-28T12:23:23.058Z,31.01
2019-05-28T12:25:55.834Z,31.13
2019-05-28T12:28:37.424Z,31.29
2019-05-28T12:31:02.512Z,31.38
2019-05-28T12:33:35.003Z,31.37
2019-05-28T12:36:10.229Z,31.27
2019-05-28T12:38:42.698Z,31.00
2019-05-28T12:41:15.192Z,30.98
2019-05-28T12:43:47.958Z,31.07
2019-05-28T12:46:20.535Z,31.20
2019-05-28T12:48:53.334Z,31.30
2019-05-28T12:51:26.246Z,31.40
2019-05-28T12:53:58.781Z,31.48
2019-05-28T12:56:31.796Z,31.49
2019-05-28T12:59:04.463Z,31.48
2019-05-28T13:01:37.378Z,31.39
2019-05-28T13:04:10.270Z,31.26
2019-05-28T13:06:42.909Z,31.03
2019-05-28T13:09:15.588Z,30.97
2019-05-28T13:11:48.351Z,30.99
2019-05-28T13:14:21.161Z,30.98
2019-05-28T13:16:54.633Z,30.91
2019-05-28T13:19:27.312Z,30.76
2019-05-28T13:22:01.547Z,30.90
2019-05-28T13:24:34.434Z,31.16
2019-05-28T13:27:17.453Z,31.41
2019-05-28T13:29:41.122Z,31.64
2019-05-28T13:32:13.817Z,32.00
2019-05-28T13:34:48.238Z,32.39
2019-05-28T13:37:21.300Z,32.64
2019-05-28T13:39:54.201Z,32.78
2019-05-28T13:42:26.856Z,32.95
2019-05-28T13:44:59.754Z,33.15
2019-05-28T13:47:34.122Z,33.43
2019-05-28T13:50:11.746Z,33.64
2019-05-28T13:52:44.639Z,33.76
2019-05-28T13:55:17.444Z,33.89
2019-05-28T13:57:49.638Z,34.11
2019-05-28T14:00:22.809Z,33.84
2019-05-28T14:02:55.396Z,33.48
2019-05-28T14:05:27.948Z,32.88
2019-05-28T14:08:00.939Z,32.76
2019-05-28T14:10:33.504Z,33.08
2019-05-28T14:13:06.392Z,33.50
2019-05-28T14:15:39.091Z,34.07
2019-05-28T14:18:12.179Z,34.51
2019-05-28T14:20:44.832Z,34.99
2019-05-28T14:23:20.403Z,35.34
2019-05-28T14:25:53.185Z,35.57
2019-05-28T14:28:25.964Z,35.91
2019-05-28T14:31:00.445Z,36.14
2019-05-28T14:33:31.937Z,36.28
2019-05-28T14:36:06.155Z,36.55
2019-05-28T14:38:38.736Z,36.47
2019-05-28T14:41:11.750Z,36.19
2019-05-28T14:43:44.605Z,35.96
2019-05-28T14:46:17.903Z,35.89
2019-05-28T14:48:49.881Z,35.83
2019-05-28T14:51:22.333Z,35.93
2019-05-28T14:53:55.019Z,35.99
2019-05-28T14:56:27.541Z,36.06
2019-05-28T14:59:00.068Z,35.90
2019-05-28T15:01:32.539Z,36.09
2019-05-28T15:04:04.621Z,36.16
2019-05-28T15:06:36.676Z,36.24
2019-05-28T15:09:20.352Z,36.70
2019-05-28T15:11:43.157Z,36.87
2019-05-28T15:14:15.940Z,37.09
2019-05-28T15:16:50.203Z,36.75
2019-05-28T15:19:23.126Z,36.11
2019-05-28T15:21:55.481Z,35.98
2019-05-28T15:24:28.917Z,35.86
2019-05-28T15:27:01.680Z,35.94
2019-05-28T15:29:34.582Z,35.89
2019-05-28T15:32:06.854Z,35.70
2019-05-28T15:34:39.204Z,35.51
2019-05-28T15:37:12.306Z,35.39
2019-05-28T15:39:44.780Z,35.01
2019-05-28T15:42:20.702Z,34.84
2019-05-28T15:44:51.928Z,34.74
2019-05-28T15:47:23.668Z,34.72
2019-05-28T15:49:56.022Z,34.71
2019-05-28T15:52:28.794Z,35.03
2019-05-28T15:55:01.274Z,35.16
2019-05-28T15:57:34.347Z,35.23
2019-05-28T16:00:14.638Z,35.53
2019-05-28T16:02:47.278Z,35.71
2019-05-28T16:05:19.393Z,35.88
2019-05-28T16:07:51.975Z,35.96
2019-05-28T16:10:24.722Z,35.99
2019-05-28T16:12:58.014Z,35.80
2019-05-28T16:15:31.131Z,35.71
2019-05-28T16:18:03.803Z,35.38
2019-05-28T16:20:36.399Z,35.07
2019-05-28T16:23:09.569Z,34.58
2019-05-28T16:25:42.437Z,33.84
2019-05-28T16:28:14.944Z,33.22
2019-05-28T16:30:47.367Z,32.91
2019-05-28T16:33:19.850Z,32.70
2019-05-28T16:35:52.444Z,32.45
2019-05-28T16:38:25.035Z,32.00
2019-05-28T16:40:57.799Z,31.32
2019-05-28T16:43:30.380Z,30.66
2019-05-28T16:46:02.955Z,30.00
2019-05-28T16:48:35.942Z,29.30
2019-05-28T16:51:08.626Z,28.67
2019-05-28T16:53:41.305Z,28.10
2019-05-28T16:56:13.782Z,27.56
2019-05-28T16:58:46.562Z,27.11
2019-05-28T17:01:22.756Z,26.68
2019-05-28T17:03:53.130Z,26.31
2019-05-28T17:06:26.013Z,26.02
2019-05-28T17:08:58.391Z,25.71
2019-05-28T17:11:31.500Z,25.46
2019-05-28T17:14:04.392Z,25.24
2019-05-28T17:16:37.554Z,24.99
2019-05-28T17:19:10.152Z,24.77
2019-05-28T17:21:42.931Z,24.56
2019-05-28T17:24:15.488Z,24.35
2019-05-28T17:26:48.096Z,24.18
2019-05-28T17:29:21.876Z,24.02
2019-05-28T17:31:54.655Z,23.85
2019-05-28T17:34:27.243Z,23.66
2019-05-28T17:37:00.323Z,23.49
2019-05-28T17:39:33.221Z,23.32
2019-05-28T17:42:05.701Z,23.19
2019-05-28T17:44:38.587Z,23.04
2019-05-28T17:47:11.611Z,22.91
2019-05-28T17:49:44.251Z,22.78
2019-05-28T17:52:18.466Z,22.66
2019-05-28T17:54:51.255Z,22.53
2019-05-28T17:57:23.929Z,22.39
2019-05-28T17:59:56.682Z,22.27
2019-05-28T18:02:29.621Z,22.14
2019-05-28T18:05:02.692Z,22.02
2019-05-28T18:07:35.363Z,21.92
2019-05-28T18:10:10.316Z,21.81
2019-05-28T18:12:42.771Z,21.72
2019-05-28T18:15:15.540Z,21.64
2019-05-28T18:17:48.315Z,21.54
2019-05-28T18:20:20.897Z,21.42
2019-05-28T18:22:53.509Z,21.35
2019-05-28T18:25:26.353Z,21.24
2019-05-28T18:27:59.462Z,21.16
2019-05-28T18:30:32.244Z,21.07
2019-05-28T18:33:05.135Z,20.98
2019-05-28T18:35:37.619Z,20.92
2019-05-28T18:38:10.285Z,20.84
2019-05-28T18:40:43.139Z,20.77
2019-05-28T18:43:15.952Z,20.69
2019-05-28T18:45:57.942Z,20.63
2019-05-28T18:48:30.613Z,20.54
2019-05-28T18:51:03.094Z,20.47
2019-05-28T18:53:35.867Z,20.41
2019-05-28T18:56:17.353Z,20.34
2019-05-28T18:58:42.981Z,20.29
2019-05-28T19:01:15.543Z,20.22
2019-05-28T19:03:50.421Z,20.16
2019-05-28T19:06:22.963Z,20.11
2019-05-28T19:08:55.731Z,20.03
2019-05-28T19:11:37.367Z,19.97
2019-05-28T19:14:02.626Z,19.93
2019-05-28T19:16:35.331Z,19.85
2019-05-28T19:19:08.005Z,19.78
2019-05-28T19:21:40.768Z,19.71
2019-05-28T19:24:13.570Z,19.65
2019-05-28T19:26:45.953Z,19.60
2019-05-28T19:29:18.725Z,19.57
2019-05-28T19:31:51.297Z,19.50
2019-05-28T19:34:23.960Z,19.42
2019-05-28T19:36:56.964Z,19.34
2019-05-28T19:39:30.653Z,19.27
2019-05-28T19:42:03.534Z,19.22
2019-05-28T19:44:36.543Z,19.17
2019-05-28T19:47:09.218Z,19.12
2019-05-28T19:49:42.699Z,19.08
2019-05-28T19:52:20.818Z,19.04
2019-05-28T19:54:54.615Z,19.03
2019-05-28T19:57:27.292Z,19.00
2019-05-28T20:00:00.007Z,18.96
2019-05-28T20:02:32.557Z,18.94
2019-05-28T20:05:06.961Z,18.93
2019-05-28T20:07:39.448Z,18.88
2019-05-28T20:10:12.861Z,18.83
2019-05-28T20:12:45.647Z,18.77
2019-05-28T20:15:19.956Z,18.70
2019-05-28T20:17:52.824Z,18.63
2019-05-28T20:20:25.848Z,18.58
2019-05-28T20:22:58.287Z,18.50
2019-05-28T20:25:31.606Z,18.45
2019-05-28T20:28:04.078Z,18.36
2019-05-28T20:30:36.837Z,18.30
2019-05-28T20:33:09.637Z,18.25
2019-05-28T20:35:42.112Z,18.19
2019-05-28T20:38:15.011Z,18.13
2019-05-28T20:40:47.886Z,18.10
2019-05-28T20:43:20.458Z,18.10
2019-05-28T20:45:53.241Z,18.08
2019-05-28T20:48:25.924Z,18.03
2019-05-28T20:51:07.791Z,17.97
2019-05-28T20:53:36.301Z,17.95
2019-05-28T20:56:08.099Z,17.88
2019-05-28T20:58:40.960Z,17.83
2019-05-28T21:01:13.622Z,17.80
2019-05-28T21:03:47.732Z,17.77
2019-05-28T21:06:20.312Z,17.76
2019-05-28T21:08:54.117Z,17.73
2019-05-28T21:11:26.573Z,17.67
2019-05-28T21:13:59.370Z,17.62
2019-05-28T21:16:32.290Z,17.56
2019-05-28T21:19:04.785Z,17.56
2019-05-28T21:21:37.413Z,17.56
2019-05-28T21:24:10.072Z,17.53
2019-05-28T21:26:42.755Z,17.50
2019-05-28T21:29:15.537Z,17.46
2019-05-28T21:31:50.398Z,17.42
2019-05-28T21:34:23.972Z,17.37
2019-05-28T21:36:57.078Z,17.30
2019-05-28T21:39:29.756Z,17.30
2019-05-28T21:42:03.321Z,17.27
2019-05-28T21:44:35.733Z,17.24
2019-05-28T21:47:08.518Z,17.21
2019-05-28T21:49:41.194Z,17.15
2019-05-28T21:52:14.925Z,17.12
2019-05-28T21:54:47.695Z,17.08
2019-05-28T21:57:20.366Z,17.04
2019-05-28T21:59:53.599Z,17.00
2019-05-28T22:02:28.760Z,16.95
2019-05-28T22:05:06.302Z,16.87
2019-05-28T22:07:35.794Z,16.82
2019-05-28T22:10:08.908Z,16.79
2019-05-28T22:12:42.997Z,16.77
2019-05-28T22:15:16.049Z,16.73
2019-05-28T22:17:56.110Z,16.69
2019-05-28T22:20:28.962Z,16.65
2019-05-28T22:23:02.655Z,16.61
2019-05-28T22:25:35.290Z,16.57
2019-05-28T22:28:07.756Z,16.54
2019-05-28T22:30:40.436Z,16.49
2019-05-28T22:33:13.140Z,16.45
2019-05-28T22:35:45.799Z,16.41
2019-05-28T22:38:18.496Z,16.38
2019-05-28T22:40:51.174Z,16.36
2019-05-28T22:43:31.516Z,16.33
2019-05-28T22:45:59.090Z,16.30
2019-05-28T22:48:31.772Z,16.25
2019-05-28T22:51:05.593Z,16.22
2019-05-28T22:53:40.297Z,16.19
2019-05-28T22:56:12.670Z,16.15
2019-05-28T22:58:45.568Z,16.12
2019-05-28T23:01:18.447Z,16.07
2019-05-28T23:03:51.024Z,15.94
2019-05-28T23:06:23.607Z,15.76
2019-05-28T23:08:56.387Z,15.59
2019-05-28T23:11:29.173Z,15.44
2019-05-28T23:14:02.097Z,15.38
2019-05-28T23:16:34.733Z,15.36
2019-05-28T23:19:07.195Z,15.36
2019-05-28T23:21:39.889Z,15.35
2019-05-28T23:24:12.662Z,15.32
2019-05-28T23:26:45.353Z,15.37
2019-05-28T23:29:17.907Z,15.40
2019-05-28T23:31:50.809Z,15.42
2019-05-28T23:34:23.531Z,15.43
2019-05-28T23:36:56.068Z,15.43
2019-05-28T23:39:28.741Z,15.43
2019-05-28T23:42:01.435Z,15.42
2019-05-28T23:44:34.306Z,15.40
2019-05-28T23:47:07.818Z,15.37
2019-05-28T23:49:40.692Z,15.32
2019-05-28T23:52:13.360Z,15.29
2019-05-28T23:54:46.533Z,15.26
2019-05-28T23:57:19.039Z,15.23
2019-05-28T23:59:51.524Z,15.19
